sensor_id;sensor_type;location;lat;lon;timestamp;pressure;altitude;pressure_sealevel;temperature;humidity
5298;BME280;14738;42.668;23.250;2023-08-06T00:01:51;48356.56;;;-141.90;100.00
5298;BME280;14738;42.668;23.250;2023-08-06T00:04:16;48394.28;;;-141.90;100.00
5298;BME280;14738;42.668;23.250;2023-08-06T00:06:41;48364.50;;;-141.90;100.00
5298;BME280;14738;42.668;23.250;2023-08-06T00:09:07;48362.50;;;-141.90;100.00
5298;BME280;14738;42.668;23.250;2023-08-06T00:11:32;48350.59;;;-141.90;100.00
5298;BME280;14738;42.668;23.250;2023-08-06T00:13:58;48338.69;;;-141.90;100.00
5298;BME280;14738;42.668;23.250;2023-08-06T00:16:23;48342.66;;;-141.90;100.00
5298;BME280;14738;42.668;23.250;2023-08-06T00:18:49;48360.53;;;-141.90;100.00
5298;BME280;14738;42.668;23.250;2023-08-06T00:21:14;48352.59;;;-141.90;100.00
5298;BME280;14738;42.668;23.250;2023-08-06T00:23:40;48372.44;;;-141.90;100.00
5298;BME280;14738;42.668;23.250;2023-08-06T00:26:06;48366.47;;;-141.90;100.00
5298;BME280;14738;42.668;23.250;2023-08-06T00:28:31;48354.56;;;-141.90;100.00
5298;BME280;14738;42.668;23.250;2023-08-06T00:30:57;48390.31;;;-141.90;100.00
5298;BME280;14738;42.668;23.250;2023-08-06T00:33:23;48370.44;;;-141.90;100.00
5298;BME280;14738;42.668;23.250;2023-08-06T00:35:48;48374.41;;;-141.90;100.00
5298;BME280;14738;42.668;23.250;2023-08-06T00:38:14;48364.50;;;-141.90;100.00
5298;BME280;14738;42.668;23.250;2023-08-06T00:40:40;48410.16;;;-141.90;100.00
5298;BME280;14738;42.668;23.250;2023-08-06T00:43:05;48376.41;;;-141.90;100.00
5298;BME280;14738;42.668;23.250;2023-08-06T00:45:34;48372.44;;;-141.90;100.00
5298;BME280;14738;42.668;23.250;2023-08-06T00:48:01;48386.34;;;-141.90;100.00
5298;BME280;14738;42.668;23.250;2023-08-06T00:50:27;48398.25;;;-141.90;100.00
5298;BME280;14738;42.668;23.250;2023-08-06T00:52:53;48374.41;;;-141.90;100.00
5298;BME280;14738;42.668;23.250;2023-08-06T00:55:19;48378.38;;;-141.90;100.00
5298;BME280;14738;42.668;23.250;2023-08-06T00:57:44;48390.31;;;-141.90;100.00
5298;BME280;14738;42.668;23.250;2023-08-06T01:00:10;48374.41;;;-141.90;100.00
5298;BME280;14738;42.668;23.250;2023-08-06T01:02:36;48372.44;;;-141.90;100.00
5298;BME280;14738;42.668;23.250;2023-08-06T01:05:02;48384.34;;;-141.90;100.00
5298;BME280;14738;42.668;23.250;2023-08-06T01:07:50;48344.63;;;-141.90;100.00
5298;BME280;14738;42.668;23.250;2023-08-06T01:12:56;48370.44;;;-141.90;100.00
5298;BME280;14738;42.668;23.250;2023-08-06T01:15:34;48348.63;;;-141.90;100.00
5298;BME280;14738;42.668;23.250;2023-08-06T01:18:00;48374.41;;;-141.90;100.00
5298;BME280;14738;42.668;23.250;2023-08-06T01:20:30;48384.34;;;-141.90;100.00
5298;BME280;14738;42.668;23.250;2023-08-06T01:22:56;48358.53;;;-141.90;100.00
5298;BME280;14738;42.668;23.250;2023-08-06T01:25:33;48362.50;;;-141.90;100.00
5298;BME280;14738;42.668;23.250;2023-08-06T01:30:59;48368.47;;;-141.90;100.00
5298;BME280;14738;42.668;23.250;2023-08-06T01:33:27;48374.41;;;-141.90;100.00
5298;BME280;14738;42.668;23.250;2023-08-06T01:35:57;48364.50;;;-141.90;100.00
5298;BME280;14738;42.668;23.250;2023-08-06T01:38:23;48350.59;;;-141.90;100.00
5298;BME280;14738;42.668;23.250;2023-08-06T01:40:50;48366.47;;;-141.90;100.00
5298;BME280;14738;42.668;23.250;2023-08-06T01:43:15;48378.38;;;-141.90;100.00
5298;BME280;14738;42.668;23.250;2023-08-06T01:45:40;48388.31;;;-141.90;100.00
5298;BME280;14738;42.668;23.250;2023-08-06T01:48:06;48372.44;;;-141.90;100.00
5298;BME280;14738;42.668;23.250;2023-08-06T01:50:31;48370.44;;;-141.90;100.00
5298;BME280;14738;42.668;23.250;2023-08-06T01:52:57;48372.44;;;-141.90;100.00
5298;BME280;14738;42.668;23.250;2023-08-06T01:55:22;48380.38;;;-141.90;100.00
5298;BME280;14738;42.668;23.250;2023-08-06T01:57:47;48394.28;;;-141.90;100.00
5298;BME280;14738;42.668;23.250;2023-08-06T02:00:13;48350.59;;;-141.90;100.00
5298;BME280;14738;42.668;23.250;2023-08-06T02:02:38;48378.38;;;-141.90;100.00
5298;BME280;14738;42.668;23.250;2023-08-06T02:05:06;48346.63;;;-141.90;100.00
5298;BME280;14738;42.668;23.250;2023-08-06T02:07:31;48352.59;;;-141.90;100.00
5298;BME280;14738;42.668;23.250;2023-08-06T02:09:57;48362.50;;;-141.90;100.00
5298;BME280;14738;42.668;23.250;2023-08-06T02:12:22;48388.31;;;-141.90;100.00
5298;BME280;14738;42.668;23.250;2023-08-06T02:14:47;48406.19;;;-141.90;100.00
5298;BME280;14738;42.668;23.250;2023-08-06T02:17:13;48390.31;;;-141.90;100.00
5298;BME280;14738;42.668;23.250;2023-08-06T02:19:38;48410.16;;;-141.90;100.00
5298;BME280;14738;42.668;23.250;2023-08-06T02:22:04;48398.25;;;-141.90;100.00
5298;BME280;14738;42.668;23.250;2023-08-06T02:24:29;48394.28;;;-141.90;100.00
5298;BME280;14738;42.668;23.250;2023-08-06T02:26:55;48380.38;;;-141.90;100.00
5298;BME280;14738;42.668;23.250;2023-08-06T02:29:21;48366.47;;;-141.90;100.00
5298;BME280;14738;42.668;23.250;2023-08-06T02:31:46;48384.34;;;-141.90;100.00
5298;BME280;14738;42.668;23.250;2023-08-06T02:34:12;48382.34;;;-141.90;100.00
5298;BME280;14738;42.668;23.250;2023-08-06T02:36:38;48358.53;;;-141.90;100.00
5298;BME280;14738;42.668;23.250;2023-08-06T02:39:03;48362.50;;;-141.90;100.00
5298;BME280;14738;42.668;23.250;2023-08-06T02:41:28;48400.22;;;-141.90;100.00
5298;BME280;14738;42.668;23.250;2023-08-06T02:43:54;48388.31;;;-141.90;100.00
5298;BME280;14738;42.668;23.250;2023-08-06T02:46:19;48414.13;;;-141.90;100.00
5298;BME280;14738;42.668;23.250;2023-08-06T02:48:45;48386.34;;;-141.90;100.00
5298;BME280;14738;42.668;23.250;2023-08-06T02:51:10;48378.38;;;-141.90;100.00
5298;BME280;14738;42.668;23.250;2023-08-06T02:53:36;48374.41;;;-141.90;100.00
5298;BME280;14738;42.668;23.250;2023-08-06T02:56:01;48394.28;;;-141.90;100.00
5298;BME280;14738;42.668;23.250;2023-08-06T02:58:27;48366.47;;;-141.90;100.00
5298;BME280;14738;42.668;23.250;2023-08-06T03:01:03;48390.31;;;-141.90;100.00
5298;BME280;14738;42.668;23.250;2023-08-06T03:03:32;48374.41;;;-141.90;100.00
5298;BME280;14738;42.668;23.250;2023-08-06T03:05:59;48356.56;;;-141.90;100.00
5298;BME280;14738;42.668;23.250;2023-08-06T03:08:24;48374.41;;;-141.90;100.00
5298;BME280;14738;42.668;23.250;2023-08-06T03:10:50;48368.47;;;-141.90;100.00
5298;BME280;14738;42.668;23.250;2023-08-06T03:13:16;48392.28;;;-141.90;100.00
5298;BME280;14738;42.668;23.250;2023-08-06T03:15:42;48380.38;;;-141.90;100.00
5298;BME280;14738;42.668;23.250;2023-08-06T03:18:08;48388.31;;;-141.90;100.00
5298;BME280;14738;42.668;23.250;2023-08-06T03:20:33;48386.34;;;-141.90;100.00
5298;BME280;14738;42.668;23.250;2023-08-06T03:22:59;48390.31;;;-141.90;100.00
5298;BME280;14738;42.668;23.250;2023-08-06T03:25:25;48418.09;;;-141.90;100.00
5298;BME280;14738;42.668;23.250;2023-08-06T03:27:50;48372.44;;;-141.90;100.00
5298;BME280;14738;42.668;23.250;2023-08-06T03:30:15;48370.44;;;-141.90;100.00
5298;BME280;14738;42.668;23.250;2023-08-06T03:32:41;48414.13;;;-141.90;100.00
5298;BME280;14738;42.668;23.250;2023-08-06T03:35:07;48384.34;;;-141.90;100.00
5298;BME280;14738;42.668;23.250;2023-08-06T03:37:32;48398.25;;;-141.90;100.00
5298;BME280;14738;42.668;23.250;2023-08-06T03:39:58;48410.16;;;-141.90;100.00
5298;BME280;14738;42.668;23.250;2023-08-06T03:42:23;48406.19;;;-141.90;100.00
5298;BME280;14738;42.668;23.250;2023-08-06T03:44:49;48392.28;;;-141.90;100.00
5298;BME280;14738;42.668;23.250;2023-08-06T03:47:14;48388.31;;;-141.90;100.00
5298;BME280;14738;42.668;23.250;2023-08-06T03:49:39;48366.47;;;-141.90;100.00
5298;BME280;14738;42.668;23.250;2023-08-06T03:52:05;48426.03;;;-141.90;100.00
5298;BME280;14738;42.668;23.250;2023-08-06T03:54:31;48386.34;;;-141.90;100.00
5298;BME280;14738;42.668;23.250;2023-08-06T03:56:56;48388.31;;;-141.90;100.00
5298;BME280;14738;42.668;23.250;2023-08-06T03:59:22;48398.25;;;-141.90;100.00
5298;BME280;14738;42.668;23.250;2023-08-06T04:01:47;48378.38;;;-141.90;100.00
5298;BME280;14738;42.668;23.250;2023-08-06T04:04:13;48422.06;;;-141.90;100.00
5298;BME280;14738;42.668;23.250;2023-08-06T04:06:38;48410.16;;;-141.90;100.00
5298;BME280;14738;42.668;23.250;2023-08-06T04:09:04;48414.13;;;-141.90;100.00
5298;BME280;14738;42.668;23.250;2023-08-06T04:11:29;48376.41;;;-141.90;100.00
5298;BME280;14738;42.668;23.250;2023-08-06T04:13:55;48392.28;;;-141.90;100.00
5298;BME280;14738;42.668;23.250;2023-08-06T04:16:21;48388.31;;;-141.90;100.00
5298;BME280;14738;42.668;23.250;2023-08-06T04:18:47;48437.94;;;-141.90;100.00
5298;BME280;14738;42.668;23.250;2023-08-06T04:21:12;48382.34;;;-141.90;100.00
5298;BME280;14738;42.668;23.250;2023-08-06T04:23:38;48372.44;;;-141.90;100.00
5298;BME280;14738;42.668;23.250;2023-08-06T04:26:03;48420.09;;;-141.90;100.00
5298;BME280;14738;42.668;23.250;2023-08-06T04:28:29;48406.19;;;-141.90;100.00
5298;BME280;14738;42.668;23.250;2023-08-06T04:30:55;48384.34;;;-141.90;100.00
5298;BME280;14738;42.668;23.250;2023-08-06T04:33:21;48412.13;;;-141.90;100.00
5298;BME280;14738;42.668;23.250;2023-08-06T04:35:46;48386.34;;;-141.90;100.00
5298;BME280;14738;42.668;23.250;2023-08-06T04:38:12;48378.38;;;-141.90;100.00
5298;BME280;14738;42.668;23.250;2023-08-06T04:40:37;48386.34;;;-141.90;100.00
5298;BME280;14738;42.668;23.250;2023-08-06T04:43:03;48402.22;;;-141.90;100.00
5298;BME280;14738;42.668;23.250;2023-08-06T04:45:28;48406.19;;;-141.90;100.00
5298;BME280;14738;42.668;23.250;2023-08-06T04:47:54;48414.13;;;-141.90;100.00
5298;BME280;14738;42.668;23.250;2023-08-06T04:50:20;48461.78;;;-141.90;100.00
5298;BME280;14738;42.668;23.250;2023-08-06T04:52:45;48422.06;;;-141.90;100.00
5298;BME280;14738;42.668;23.250;2023-08-06T04:55:11;48398.25;;;-141.90;100.00
5298;BME280;14738;42.668;23.250;2023-08-06T04:57:36;48435.97;;;-141.90;100.00
5298;BME280;14738;42.668;23.250;2023-08-06T05:00:02;48433.97;;;-141.90;100.00
5298;BME280;14738;42.668;23.250;2023-08-06T05:02:27;48441.91;;;-141.90;100.00
5298;BME280;14738;42.668;23.250;2023-08-06T05:04:53;48424.06;;;-141.90;100.00
5298;BME280;14738;42.668;23.250;2023-08-06T05:07:18;48445.88;;;-141.90;100.00
5298;BME280;14738;42.668;23.250;2023-08-06T05:09:44;48497.50;;;-141.90;100.00
5298;BME280;14738;42.668;23.250;2023-08-06T05:12:09;48539.19;;;-141.90;100.00
5298;BME280;14738;42.668;23.250;2023-08-06T05:14:34;48624.56;;;-141.90;100.00
5298;BME280;14738;42.668;23.250;2023-08-06T05:17:00;48729.78;;;-141.90;100.00
5298;BME280;14738;42.668;23.250;2023-08-06T05:19:27;48769.50;;;-141.90;100.00
5298;BME280;14738;42.668;23.250;2023-08-06T05:21:52;48839.00;;;-141.90;100.00
5298;BME280;14738;42.668;23.250;2023-08-06T05:24:18;48894.59;;;-141.90;38.10
5298;BME280;14738;42.668;23.250;2023-08-06T05:26:43;48960.09;;;-141.90;36.63
5298;BME280;14738;42.668;23.250;2023-08-06T05:29:12;48956.13;;;-141.90;36.14
5298;BME280;14738;42.668;23.250;2023-08-06T05:31:37;48997.81;;;-141.90;36.27
5298;BME280;14738;42.668;23.250;2023-08-06T05:34:02;48985.91;;;-141.90;34.33
5298;BME280;14738;42.668;23.250;2023-08-06T05:36:28;48972.00;;;-141.90;35.12
5298;BME280;14738;42.668;23.250;2023-08-06T05:38:54;48870.75;;;-141.90;38.18
5298;BME280;14738;42.668;23.250;2023-08-06T05:41:19;48811.19;;;-141.90;38.62
5298;BME280;14738;42.668;23.250;2023-08-06T05:43:45;48723.84;;;-141.90;39.27
5298;BME280;14738;42.668;23.250;2023-08-06T05:46:10;48690.09;;;-141.90;42.77
5298;BME280;14738;42.668;23.250;2023-08-06T05:48:36;48636.47;;;-141.90;45.72
5298;BME280;14738;42.668;23.250;2023-08-06T05:51:01;48570.97;;;-141.90;47.29
5298;BME280;14738;42.668;23.250;2023-08-06T05:53:27;48598.75;;;-141.90;47.51
5298;BME280;14738;42.668;23.250;2023-08-06T05:55:52;48572.94;;;-141.90;48.64
5298;BME280;14738;42.668;23.250;2023-08-06T05:58:17;48598.75;;;-141.90;49.19
5298;BME280;14738;42.668;23.250;2023-08-06T06:00:45;48568.97;;;-141.90;50.13
5298;BME280;14738;42.668;23.250;2023-08-06T06:03:10;48596.78;;;-141.90;47.16
5298;BME280;14738;42.668;23.250;2023-08-06T06:05:39;48604.72;;;-141.90;45.95
5298;BME280;14738;42.668;23.250;2023-08-06T06:08:05;48612.66;;;-141.90;45.14
5298;BME280;14738;42.668;23.250;2023-08-06T06:10:30;48574.94;;;-141.90;46.39
5298;BME280;14738;42.668;23.250;2023-08-06T06:12:56;48557.06;;;-141.90;48.04
5298;BME280;14738;42.668;23.250;2023-08-06T06:15:21;48565.00;;;-141.90;47.80
5298;BME280;14738;42.668;23.250;2023-08-06T06:17:46;48576.91;;;-141.90;48.13
5298;BME280;14738;42.668;23.250;2023-08-06T06:20:12;48563.03;;;-141.90;49.13
5298;BME280;14738;42.668;23.250;2023-08-06T06:22:37;48525.31;;;-141.90;48.35
5298;BME280;14738;42.668;23.250;2023-08-06T06:25:03;48553.09;;;-141.90;48.38
5298;BME280;14738;42.668;23.250;2023-08-06T06:27:29;48527.28;;;-141.90;49.36
5298;BME280;14738;42.668;23.250;2023-08-06T06:29:54;48553.09;;;-141.90;51.13
5298;BME280;14738;42.668;23.250;2023-08-06T06:32:20;48557.06;;;-141.90;51.32
5298;BME280;14738;42.668;23.250;2023-08-06T06:34:46;48525.31;;;-141.90;50.48
5298;BME280;14738;42.668;23.250;2023-08-06T06:37:11;48491.56;;;-141.90;51.55
5298;BME280;14738;42.668;23.250;2023-08-06T06:39:37;48565.00;;;-141.90;52.04
5298;BME280;14738;42.668;23.250;2023-08-06T06:42:02;48541.19;;;-141.90;51.72
5298;BME280;14738;42.668;23.250;2023-08-06T06:44:28;48549.13;;;-141.90;52.94
5298;BME280;14738;42.668;23.250;2023-08-06T06:46:53;48513.38;;;-141.90;54.18
5298;BME280;14738;42.668;23.250;2023-08-06T06:49:18;48517.34;;;-141.90;54.33
5298;BME280;14738;42.668;23.250;2023-08-06T06:51:45;48521.34;;;-141.90;52.56
5298;BME280;14738;42.668;23.250;2023-08-06T06:54:11;48620.59;;;-141.90;47.92
5298;BME280;14738;42.668;23.250;2023-08-06T06:56:37;48658.31;;;-141.90;46.00
5298;BME280;14738;42.668;23.250;2023-08-06T06:59:02;48636.47;;;-141.90;44.57
5298;BME280;14738;42.668;23.250;2023-08-06T07:01:28;48580.88;;;-141.90;45.38
5298;BME280;14738;42.668;23.250;2023-08-06T07:03:53;48557.06;;;-141.90;46.15
5298;BME280;14738;42.668;23.250;2023-08-06T07:06:19;48636.47;;;-141.90;44.67
5298;BME280;14738;42.668;23.250;2023-08-06T07:08:45;48703.97;;;-141.90;42.58
5298;BME280;14738;42.668;23.250;2023-08-06T07:11:10;48749.66;;;-141.90;38.97
5298;BME280;14738;42.668;23.250;2023-08-06T07:13:36;48785.38;;;-141.90;37.80
5298;BME280;14738;42.668;23.250;2023-08-06T07:16:01;48813.19;;;-141.90;36.90
5298;BME280;14738;42.668;23.250;2023-08-06T07:18:27;48771.47;;;-141.90;37.85
5298;BME280;14738;42.668;23.250;2023-08-06T07:20:54;48735.75;;;-141.90;38.72
5298;BME280;14738;42.668;23.250;2023-08-06T07:23:24;48739.72;;;-141.90;39.65
5298;BME280;14738;42.668;23.250;2023-08-06T07:25:50;48700.00;;;-141.90;38.83
5298;BME280;14738;42.668;23.250;2023-08-06T07:28:16;48741.69;;;-141.90;37.90
5298;BME280;14738;42.668;23.250;2023-08-06T07:30:43;48755.59;;;-141.90;38.13
5298;BME280;14738;42.668;23.250;2023-08-06T07:33:09;48745.69;;;-141.90;38.08
5298;BME280;14738;42.668;23.250;2023-08-06T07:35:35;48755.59;;;-141.90;37.89
5298;BME280;14738;42.668;23.250;2023-08-06T07:38:01;48680.16;;;-141.90;36.61
5298;BME280;14738;42.668;23.250;2023-08-06T07:40:27;48719.88;;;-141.90;37.57
5298;BME280;14738;42.668;23.250;2023-08-06T07:42:53;48700.00;;;-141.90;36.91
5298;BME280;14738;42.668;23.250;2023-08-06T07:45:18;48644.41;;;-141.90;39.16
5298;BME280;14738;42.668;23.250;2023-08-06T07:47:43;48616.63;;;-141.90;40.44
5298;BME280;14738;42.668;23.250;2023-08-06T07:50:09;48648.38;;;-141.90;40.09
5298;BME280;14738;42.668;23.250;2023-08-06T07:52:35;48616.63;;;-141.90;42.02
5298;BME280;14738;42.668;23.250;2023-08-06T07:55:01;48592.81;;;-141.90;41.15
5298;BME280;14738;42.668;23.250;2023-08-06T07:57:30;48628.53;;;-141.90;42.65
5298;BME280;14738;42.668;23.250;2023-08-06T07:59:57;48618.59;;;-141.90;42.61
5298;BME280;14738;42.668;23.250;2023-08-06T08:02:23;48598.75;;;-141.90;42.20
5298;BME280;14738;42.668;23.250;2023-08-06T08:04:48;48604.72;;;-141.90;40.79
5298;BME280;14738;42.668;23.250;2023-08-06T08:07:14;48610.66;;;-141.90;39.92
5298;BME280;14738;42.668;23.250;2023-08-06T08:09:39;48602.72;;;-141.90;40.33
5298;BME280;14738;42.668;23.250;2023-08-06T08:12:05;48622.59;;;-141.90;40.53
5298;BME280;14738;42.668;23.250;2023-08-06T08:14:31;48584.84;;;-141.90;41.63
5298;BME280;14738;42.668;23.250;2023-08-06T08:17:05;48557.06;;;-141.90;41.19
5298;BME280;14738;42.668;23.250;2023-08-06T08:19:33;48551.09;;;-141.90;42.63
5298;BME280;14738;42.668;23.250;2023-08-06T08:21:58;48604.72;;;-141.90;42.27
5298;BME280;14738;42.668;23.250;2023-08-06T08:24:24;48628.53;;;-141.90;40.23
5298;BME280;14738;42.668;23.250;2023-08-06T08:26:50;48608.69;;;-141.90;39.33
5298;BME280;14738;42.668;23.250;2023-08-06T08:29:16;48648.38;;;-141.90;40.01
5298;BME280;14738;42.668;23.250;2023-08-06T08:31:41;48707.94;;;-141.90;38.07
5298;BME280;14738;42.668;23.250;2023-08-06T08:34:08;48787.38;;;-141.90;36.33
5298;BME280;14738;42.668;23.250;2023-08-06T08:36:34;48753.63;;;-141.90;38.09
5298;BME280;14738;42.668;23.250;2023-08-06T08:38:59;48783.41;;;-141.90;37.20
5298;BME280;14738;42.668;23.250;2023-08-06T08:41:28;48751.63;;;-141.90;35.79
5298;BME280;14738;42.668;23.250;2023-08-06T08:43:55;48751.63;;;-141.90;36.66
5298;BME280;14738;42.668;23.250;2023-08-06T08:46:21;48735.75;;;-141.90;37.05
5298;BME280;14738;42.668;23.250;2023-08-06T08:48:47;48751.63;;;-141.90;35.79
5298;BME280;14738;42.668;23.250;2023-08-06T08:51:13;48713.91;;;-141.90;35.84
5298;BME280;14738;42.668;23.250;2023-08-06T08:53:39;48727.81;;;-141.90;35.86
5298;BME280;14738;42.668;23.250;2023-08-06T08:56:07;48769.50;;;-141.90;36.30
5298;BME280;14738;42.668;23.250;2023-08-06T08:58:33;48797.28;;;-141.90;35.31
5298;BME280;14738;42.668;23.250;2023-08-06T09:00:59;48807.22;;;-141.90;34.28
5298;BME280;14738;42.668;23.250;2023-08-06T09:03:26;48775.47;;;-141.90;34.53
5298;BME280;14738;42.668;23.250;2023-08-06T09:05:53;48723.84;;;-141.90;36.00
5298;BME280;14738;42.668;23.250;2023-08-06T09:08:25;48703.97;;;-141.90;37.32
5298;BME280;14738;42.668;23.250;2023-08-06T09:10:53;48731.78;;;-141.90;36.80
5298;BME280;14738;42.668;23.250;2023-08-06T09:13:18;48777.44;;;-141.90;35.42
5298;BME280;14738;42.668;23.250;2023-08-06T09:15:46;48735.75;;;-141.90;36.11
5298;BME280;14738;42.668;23.250;2023-08-06T09:18:15;48799.28;;;-141.90;35.08
5298;BME280;14738;42.668;23.250;2023-08-06T09:20:50;48773.47;;;-141.90;34.31
5298;BME280;14738;42.668;23.250;2023-08-06T09:23:15;48763.53;;;-141.90;34.24
5298;BME280;14738;42.668;23.250;2023-08-06T09:25:41;48743.69;;;-141.90;33.69
5298;BME280;14738;42.668;23.250;2023-08-06T09:28:06;48755.59;;;-141.90;34.35
5298;BME280;14738;42.668;23.250;2023-08-06T09:30:34;48731.78;;;-141.90;33.99
5298;BME280;14738;42.668;23.250;2023-08-06T09:33:00;48799.28;;;-141.90;33.62
5298;BME280;14738;42.668;23.250;2023-08-06T09:35:30;48747.66;;;-141.90;33.26
5298;BME280;14738;42.668;23.250;2023-08-06T09:38:01;48763.53;;;-141.90;34.49
5298;BME280;14738;42.668;23.250;2023-08-06T09:40:33;48846.94;;;-141.90;34.02
5298;BME280;14738;42.668;23.250;2023-08-06T09:42:59;48803.25;;;-141.90;32.01
5298;BME280;14738;42.668;23.250;2023-08-06T09:45:30;48791.34;;;-141.90;32.85
5298;BME280;14738;42.668;23.250;2023-08-06T09:47:57;48751.63;;;-141.90;33.08
5298;BME280;14738;42.668;23.250;2023-08-06T09:50:29;48743.69;;;-141.90;34.55
5298;BME280;14738;42.668;23.250;2023-08-06T09:52:56;48735.75;;;-141.90;34.28
5298;BME280;14738;42.668;23.250;2023-08-06T09:55:23;48721.84;;;-141.90;32.83
5298;BME280;14738;42.668;23.250;2023-08-06T09:57:50;48711.91;;;-141.90;33.19
5298;BME280;14738;42.668;23.250;2023-08-06T10:00:16;48709.94;;;-141.90;33.47
5298;BME280;14738;42.668;23.250;2023-08-06T10:02:43;48707.94;;;-141.90;34.66
5298;BME280;14738;42.668;23.250;2023-08-06T10:05:11;48666.25;;;-141.90;33.51
5298;BME280;14738;42.668;23.250;2023-08-06T10:07:37;48682.13;;;-141.90;34.78
5298;BME280;14738;42.668;23.250;2023-08-06T10:10:06;48668.25;;;-141.90;35.41
5298;BME280;14738;42.668;23.250;2023-08-06T10:12:39;48652.38;;;-141.90;34.88
5298;BME280;14738;42.668;23.250;2023-08-06T10:15:09;48747.66;;;-141.90;33.63
5298;BME280;14738;42.668;23.250;2023-08-06T10:17:36;48753.63;;;-141.90;32.97
5298;BME280;14738;42.668;23.250;2023-08-06T10:20:07;48739.72;;;-141.90;32.71
5298;BME280;14738;42.668;23.250;2023-08-06T10:22:34;48711.91;;;-141.90;32.20
5298;BME280;14738;42.668;23.250;2023-08-06T10:25:01;48700.00;;;-141.90;33.12
5298;BME280;14738;42.668;23.250;2023-08-06T10:30:27;48781.41;;;-141.90;31.57
5298;BME280;14738;42.668;23.250;2023-08-06T10:32:55;48761.56;;;-141.90;32.25
5298;BME280;14738;42.668;23.250;2023-08-06T10:35:44;48755.59;;;-141.90;32.97
5298;BME280;14738;42.668;23.250;2023-08-06T10:38:19;48765.53;;;-141.90;33.23
5298;BME280;14738;42.668;23.250;2023-08-06T10:43:32;48672.22;;;-141.90;34.91
5298;BME280;14738;42.668;23.250;2023-08-06T10:45:59;48670.22;;;-141.90;33.86
5298;BME280;14738;42.668;23.250;2023-08-06T10:48:38;48707.94;;;-141.90;33.64
5298;BME280;14738;42.668;23.250;2023-08-06T10:51:07;48672.22;;;-141.90;33.48
5298;BME280;14738;42.668;23.250;2023-08-06T10:53:33;48696.03;;;-141.90;34.50
5298;BME280;14738;42.668;23.250;2023-08-06T10:55:59;48723.84;;;-141.90;33.41
5298;BME280;14738;42.668;23.250;2023-08-06T10:58:25;48733.75;;;-141.90;34.09
5298;BME280;14738;42.668;23.250;2023-08-06T11:00:51;48785.38;;;-141.90;32.59
5298;BME280;14738;42.668;23.250;2023-08-06T11:03:17;48723.84;;;-141.90;33.68
5298;BME280;14738;42.668;23.250;2023-08-06T11:05:49;48711.91;;;-141.90;33.72
5298;BME280;14738;42.668;23.250;2023-08-06T11:08:28;48656.34;;;-141.90;34.76
5298;BME280;14738;42.668;23.250;2023-08-06T11:10:55;48644.41;;;-141.90;35.68
5298;BME280;14738;42.668;23.250;2023-08-06T11:13:21;48626.56;;;-141.90;36.78
5298;BME280;14738;42.668;23.250;2023-08-06T11:15:46;48588.84;;;-141.90;40.82
5298;BME280;14738;42.668;23.250;2023-08-06T11:18:12;48580.88;;;-141.90;44.24
5298;BME280;14738;42.668;23.250;2023-08-06T11:20:39;48529.28;;;-141.90;45.68
5298;BME280;14738;42.668;23.250;2023-08-06T11:23:05;48529.28;;;-141.90;50.05
5298;BME280;14738;42.668;23.250;2023-08-06T11:25:35;48531.25;;;-141.90;49.26
5298;BME280;14738;42.668;23.250;2023-08-06T11:28:01;48535.22;;;-141.90;51.60
5298;BME280;14738;42.668;23.250;2023-08-06T11:30:26;48525.31;;;-141.90;53.40
5298;BME280;14738;42.668;23.250;2023-08-06T11:32:52;48582.88;;;-141.90;52.83
5298;BME280;14738;42.668;23.250;2023-08-06T11:35:17;48551.09;;;-141.90;52.80
5298;BME280;14738;42.668;23.250;2023-08-06T11:37:46;48596.78;;;-141.90;52.50
5298;BME280;14738;42.668;23.250;2023-08-06T11:40:14;48590.81;;;-141.90;51.92
5298;BME280;14738;42.668;23.250;2023-08-06T11:42:40;48632.50;;;-141.90;48.67
5298;BME280;14738;42.668;23.250;2023-08-06T11:45:08;48624.56;;;-141.90;49.34
5298;BME280;14738;42.668;23.250;2023-08-06T11:47:38;48602.72;;;-141.90;46.35
5298;BME280;14738;42.668;23.250;2023-08-06T11:50:04;48612.66;;;-141.90;45.13
5298;BME280;14738;42.668;23.250;2023-08-06T11:52:31;48614.63;;;-141.90;45.31
5298;BME280;14738;42.668;23.250;2023-08-06T11:57:31;48624.56;;;-141.90;41.33
5298;BME280;14738;42.668;23.250;2023-08-06T12:00:02;48632.50;;;-141.90;42.51
5298;BME280;14738;42.668;23.250;2023-08-06T12:02:31;48592.81;;;-141.90;41.85
5298;BME280;14738;42.668;23.250;2023-08-06T12:05:00;48632.50;;;-141.90;40.27
5298;BME280;14738;42.668;23.250;2023-08-06T12:07:28;48660.31;;;-141.90;39.25
5298;BME280;14738;42.668;23.250;2023-08-06T12:09:53;48674.19;;;-141.90;36.94
5298;BME280;14738;42.668;23.250;2023-08-06T12:12:19;48636.47;;;-141.90;37.11
5298;BME280;14738;42.668;23.250;2023-08-06T12:14:44;48650.38;;;-141.90;36.41
5298;BME280;14738;42.668;23.250;2023-08-06T12:17:09;48612.66;;;-141.90;36.91
5298;BME280;14738;42.668;23.250;2023-08-06T12:19:35;48640.44;;;-141.90;37.52
5298;BME280;14738;42.668;23.250;2023-08-06T12:22:01;48654.34;;;-141.90;37.00
5298;BME280;14738;42.668;23.250;2023-08-06T12:24:29;48700.00;;;-141.90;36.51
5298;BME280;14738;42.668;23.250;2023-08-06T12:26:57;48672.22;;;-141.90;36.85
5298;BME280;14738;42.668;23.250;2023-08-06T12:29:24;48640.44;;;-141.90;34.28
5298;BME280;14738;42.668;23.250;2023-08-06T12:31:50;48692.06;;;-141.90;36.28
5298;BME280;14738;42.668;23.250;2023-08-06T12:34:15;48688.09;;;-141.90;37.33
5298;BME280;14738;42.668;23.250;2023-08-06T12:36:41;48692.06;;;-141.90;37.03
5298;BME280;14738;42.668;23.250;2023-08-06T12:39:06;48702.00;;;-141.90;36.38
5298;BME280;14738;42.668;23.250;2023-08-06T12:41:32;48709.94;;;-141.90;36.33
5298;BME280;14738;42.668;23.250;2023-08-06T12:43:58;48719.88;;;-141.90;36.03
5298;BME280;14738;42.668;23.250;2023-08-06T12:46:23;48707.94;;;-141.90;34.75